createdAt,value
2022-10-20T00:01:16.642Z,99.18
2022-10-20T00:05:17.998Z,99.04
2022-10-20T00:09:19.328Z,99.43
2022-10-20T00:13:20.573Z,99.53
2022-10-20T00:17:22.049Z,99.60
2022-10-20T00:21:25.041Z,99.46
2022-10-20T00:25:26.305Z,99.77
2022-10-20T00:29:27.610Z,99.69
2022-10-20T00:33:28.980Z,99.54
2022-10-20T00:37:30.297Z,99.55
2022-10-20T00:41:32.200Z,99.81
2022-10-20T00:45:33.485Z,100.00
2022-10-20T00:49:34.765Z,99.89
2022-10-20T00:53:36.049Z,99.82
2022-10-20T00:57:38.781Z,99.49
2022-10-20T01:01:41.351Z,99.74
2022-10-20T01:05:42.892Z,99.52
2022-10-20T01:09:44.433Z,99.78
2022-10-20T01:13:56.405Z,99.81
2022-10-20T01:18:13.239Z,99.12
2022-10-20T01:22:33.471Z,99.58
2022-10-20T01:26:50.807Z,99.43
2022-10-20T01:30:57.030Z,99.07
2022-10-20T01:34:58.305Z,99.44
2022-10-20T01:39:02.612Z,99.43
2022-10-20T01:43:06.243Z,98.99
2022-10-20T01:47:09.233Z,99.42
2022-10-20T01:51:10.649Z,98.92
2022-10-20T01:55:16.493Z,99.70
2022-10-20T01:59:30.077Z,99.30
2022-10-20T02:03:45.364Z,99.55
2022-10-20T02:07:46.637Z,99.33
2022-10-20T02:11:48.245Z,98.90
2022-10-20T02:16:00.757Z,98.92
2022-10-20T02:20:05.050Z,98.92
2022-10-20T02:24:07.619Z,98.56
2022-10-20T02:28:10.549Z,98.88
2022-10-20T02:32:12.604Z,99.02
2022-10-20T02:36:17.733Z,99.07
2022-10-20T02:40:19.090Z,98.74
2022-10-20T02:44:20.543Z,98.97
2022-10-20T02:48:21.820Z,99.14
2022-10-20T02:52:23.125Z,98.41
2022-10-20T02:56:26.498Z,98.94
2022-10-20T03:00:31.926Z,98.61
2022-10-20T03:04:33.196Z,99.32
2022-10-20T03:08:34.557Z,98.72
2022-10-20T03:12:35.844Z,98.35
2022-10-20T03:16:37.418Z,98.70
2022-10-20T03:20:38.775Z,99.26
2022-10-20T03:24:40.117Z,99.13
2022-10-20T03:28:41.724Z,98.97
2022-10-20T03:32:43.002Z,98.70
2022-10-20T03:36:44.277Z,99.20
2022-10-20T03:40:45.610Z,99.17
2022-10-20T03:44:47.110Z,98.83
2022-10-20T03:48:48.377Z,98.79
2022-10-20T03:52:50.282Z,98.50
2022-10-20T03:56:51.609Z,98.32
2022-10-20T04:00:53.843Z,98.63
2022-10-20T04:04:55.193Z,98.40
2022-10-20T04:08:56.678Z,97.85
2022-10-20T04:12:58.969Z,97.79
2022-10-20T04:17:00.244Z,97.70
2022-10-20T04:21:02.107Z,98.28
2022-10-20T04:25:03.444Z,98.30
2022-10-20T04:29:04.801Z,98.48
2022-10-20T04:33:06.110Z,98.18
2022-10-20T04:37:07.749Z,97.91
2022-10-20T04:41:10.125Z,98.35
2022-10-20T04:45:11.437Z,98.13
2022-10-20T04:49:12.706Z,98.42
2022-10-20T04:53:13.995Z,97.90
2022-10-20T04:57:15.376Z,98.18
2022-10-20T05:01:17.120Z,98.63
2022-10-20T05:05:18.668Z,99.09
2022-10-20T05:09:19.966Z,99.10
2022-10-20T05:13:21.205Z,99.20
2022-10-20T05:17:22.668Z,98.82
2022-10-20T05:21:25.158Z,98.43
2022-10-20T05:25:41.783Z,98.67
2022-10-20T05:29:43.174Z,98.31
2022-10-20T05:33:46.565Z,98.64
2022-10-20T05:37:47.936Z,98.86
2022-10-20T05:41:49.250Z,99.07
2022-10-20T05:45:53.527Z,98.89
2022-10-20T05:49:54.886Z,98.35
2022-10-20T05:53:57.290Z,98.63
2022-10-20T05:57:58.564Z,99.12
2022-10-20T06:01:59.912Z,98.47
2022-10-20T06:06:01.658Z,98.73
2022-10-20T06:10:03.854Z,99.31
2022-10-20T06:14:05.148Z,99.09
2022-10-20T06:18:06.461Z,98.58
2022-10-20T06:22:08.165Z,98.71
2022-10-20T06:26:13.849Z,99.42
2022-10-20T06:30:15.680Z,98.92
2022-10-20T06:34:18.462Z,99.38
2022-10-20T06:38:19.725Z,99.06
2022-10-20T06:42:21.325Z,98.84
2022-10-20T06:46:22.589Z,99.30
2022-10-20T06:50:23.869Z,98.90
2022-10-20T06:54:25.154Z,98.57
2022-10-20T06:58:26.972Z,98.60
2022-10-20T07:02:28.271Z,99.21
2022-10-20T07:06:31.169Z,99.41
2022-10-20T07:10:32.457Z,99.30
2022-10-20T07:14:37.151Z,99.39
2022-10-20T07:18:38.721Z,98.42
2022-10-20T07:22:40.069Z,98.20
2022-10-20T07:26:41.783Z,97.97
2022-10-20T07:30:43.053Z,97.60
2022-10-20T07:34:44.922Z,96.73
2022-10-20T07:38:47.012Z,96.91
2022-10-20T07:42:48.365Z,96.79
2022-10-20T07:46:50.062Z,96.98
2022-10-20T07:50:51.393Z,96.45
2022-10-20T07:55:01.577Z,96.16
2022-10-20T07:59:14.697Z,96.27
2022-10-20T08:03:15.980Z,95.73
2022-10-20T08:07:17.374Z,95.22
2022-10-20T08:11:18.749Z,94.76
2022-10-20T08:15:20.060Z,94.70
2022-10-20T08:23:42.535Z,94.62
2022-10-20T08:27:43.806Z,94.38
2022-10-20T08:31:45.237Z,94.11
2022-10-20T08:35:46.602Z,93.63
2022-10-20T08:39:48.288Z,93.33
2022-10-20T08:43:50.945Z,93.06
2022-10-20T08:47:53.942Z,91.95
2022-10-20T08:51:55.319Z,91.25
2022-10-20T08:55:57.054Z,90.53
2022-10-20T09:00:18.604Z,90.30
2022-10-20T09:04:38.896Z,90.10
2022-10-20T09:08:40.420Z,90.50
2022-10-20T09:12:43.492Z,90.32
2022-10-20T09:16:59.629Z,89.84
2022-10-20T09:21:05.221Z,89.49
2022-10-20T09:25:06.980Z,90.01
2022-10-20T09:29:14.151Z,90.49
2022-10-20T09:33:22.139Z,91.29
2022-10-20T09:37:23.528Z,90.52
2022-10-20T09:41:26.588Z,91.12
2022-10-20T09:45:30.273Z,91.77
2022-10-20T09:49:37.169Z,92.02
2022-10-20T09:53:59.120Z,92.09
2022-10-20T09:58:01.796Z,92.27
2022-10-20T10:02:15.141Z,91.94
2022-10-20T10:06:28.667Z,91.32
2022-10-20T10:10:31.128Z,90.82
2022-10-20T10:14:33.429Z,91.14
2022-10-20T10:18:35.416Z,91.14
2022-10-20T10:22:37.630Z,90.75
2022-10-20T10:26:55.155Z,90.44
2022-10-20T10:31:07.080Z,90.27
2022-10-20T10:35:27.253Z,91.82
2022-10-20T10:39:29.703Z,93.02
2022-10-20T10:43:47.901Z,93.57
2022-10-20T10:47:53.673Z,93.72
2022-10-20T10:52:01.149Z,94.09
2022-10-20T11:00:14.494Z,93.58
2022-10-20T11:04:15.783Z,92.64
2022-10-20T11:08:23.533Z,92.67
2022-10-20T11:12:37.023Z,93.46
2022-10-20T11:16:44.236Z,93.71
2022-10-20T11:20:54.604Z,93.50
2022-10-20T11:25:11.273Z,93.12
2022-10-20T11:33:44.481Z,92.13
2022-10-20T11:38:07.273Z,93.04
2022-10-20T11:42:24.049Z,93.30
2022-10-20T11:46:32.021Z,92.85
2022-10-20T11:50:34.820Z,92.99
2022-10-20T11:54:42.696Z,92.70
2022-10-20T11:58:44.210Z,93.20
2022-10-20T12:02:48.533Z,92.22
2022-10-20T12:06:55.643Z,91.99
2022-10-20T12:11:03.380Z,92.32
2022-10-20T12:15:19.866Z,91.61
2022-10-20T12:19:25.577Z,92.16
2022-10-20T12:23:53.208Z,91.99
2022-10-20T12:28:13.415Z,91.24
2022-10-20T12:32:33.713Z,91.38
2022-10-20T12:36:37.209Z,92.16
2022-10-20T12:40:49.014Z,92.65
2022-10-20T12:44:50.822Z,93.52
2022-10-20T12:49:05.590Z,94.66
2022-10-20T14:08:17.888Z,100.00
2022-10-20T14:12:37.355Z,100.00
2022-10-20T15:13:51.751Z,100.00
2022-10-20T15:22:43.672Z,100.00
2022-10-20T15:27:46.362Z,100.00
2022-10-20T15:36:20.605Z,100.00
2022-10-20T15:40:51.551Z,100.00
2022-10-20T15:44:59.124Z,100.00
2022-10-20T15:49:17.610Z,100.00
2022-10-20T15:53:19.843Z,100.00
2022-10-20T15:57:21.245Z,100.00
2022-10-20T16:01:22.869Z,100.00
2022-10-20T16:05:25.137Z,100.00
2022-10-20T16:09:26.552Z,100.00
2022-10-20T16:13:28.624Z,100.00
2022-10-20T16:17:29.920Z,100.00
2022-10-20T16:21:31.559Z,100.00
2022-10-20T16:25:32.862Z,100.00
2022-10-20T16:29:34.175Z,100.00
2022-10-20T16:33:35.738Z,100.00
2022-10-20T16:37:37.323Z,100.00
2022-10-20T16:41:38.770Z,100.00
2022-10-20T16:45:40.157Z,100.00
2022-10-20T16:49:41.408Z,100.00
2022-10-20T16:53:42.723Z,100.00
2022-10-20T16:57:43.982Z,100.00
2022-10-20T17:01:45.312Z,100.00
2022-10-20T17:05:53.345Z,100.00
2022-10-20T17:09:54.632Z,100.00
2022-10-20T17:13:56.386Z,100.00
2022-10-20T17:17:57.749Z,100.00
2022-10-20T17:21:59.066Z,100.00
2022-10-20T17:26:02.452Z,100.00
2022-10-20T17:30:03.924Z,100.00
2022-10-20T17:34:05.196Z,100.00
2022-10-20T17:38:06.917Z,100.00
2022-10-20T17:42:08.216Z,100.00
2022-10-20T17:46:11.923Z,100.00
2022-10-20T17:50:13.586Z,100.00
2022-10-20T17:54:15.165Z,100.00
2022-10-20T17:58:16.490Z,100.00
2022-10-20T18:02:19.553Z,100.00
2022-10-20T18:06:21.845Z,100.00
2022-10-20T18:10:23.096Z,100.00
2022-10-20T18:14:24.567Z,100.00
2022-10-20T18:18:25.810Z,100.00
2022-10-20T18:22:27.190Z,100.00
2022-10-20T18:26:28.896Z,100.00
2022-10-20T18:30:30.158Z,100.00
2022-10-20T18:34:31.516Z,100.00
2022-10-20T18:38:35.160Z,100.00
2022-10-20T18:42:36.471Z,100.00
2022-10-20T18:46:39.219Z,100.00
2022-10-20T18:50:42.397Z,100.00
2022-10-20T18:54:43.790Z,100.00
2022-10-20T18:59:08.436Z,100.00
2022-10-20T19:03:10.271Z,100.00
2022-10-20T19:07:11.519Z,100.00
2022-10-20T19:11:13.407Z,100.00
2022-10-20T19:15:15.129Z,100.00
2022-10-20T19:19:16.734Z,100.00
2022-10-20T19:23:18.032Z,100.00
2022-10-20T19:27:26.508Z,100.00
2022-10-20T19:31:31.499Z,100.00
2022-10-20T19:35:32.973Z,100.00
2022-10-20T19:39:36.873Z,100.00
2022-10-20T19:43:38.905Z,100.00
2022-10-20T19:47:40.214Z,100.00
2022-10-20T19:51:41.730Z,100.00
2022-10-20T19:55:46.053Z,100.00
2022-10-20T19:59:47.645Z,100.00
2022-10-20T20:03:49.068Z,100.00
2022-10-20T20:07:50.400Z,100.00
2022-10-20T20:12:15.588Z,100.00
2022-10-20T21:09:01.474Z,100.00
2022-10-20T21:13:42.713Z,100.00
2022-10-20T21:44:44.705Z,100.00
2022-10-20T21:48:47.963Z,100.00
2022-10-20T21:52:49.893Z,100.00
2022-10-20T21:56:51.545Z,100.00
2022-10-20T22:00:59.044Z,100.00
2022-10-20T22:14:04.232Z,100.00
2022-10-20T22:18:05.665Z,100.00
2022-10-20T22:22:07.023Z,100.00
2022-10-20T22:26:09.124Z,100.00
2022-10-20T22:30:10.721Z,100.00
2022-10-20T22:34:12.140Z,100.00
2022-10-20T22:38:13.401Z,100.00
2022-10-20T22:42:14.748Z,100.00
2022-10-20T22:46:16.302Z,100.00
2022-10-20T22:50:18.365Z,100.00
2022-10-20T22:54:19.761Z,100.00
2022-10-20T22:58:22.001Z,100.00
2022-10-20T23:02:23.268Z,100.00
2022-10-20T23:06:25.646Z,100.00
2022-10-20T23:10:27.316Z,100.00
2022-10-20T23:14:28.703Z,100.00
2022-10-20T23:18:30.174Z,100.00
2022-10-20T23:22:31.517Z,100.00
2022-10-20T23:26:32.794Z,100.00
2022-10-20T23:30:34.389Z,100.00
2022-10-20T23:34:35.720Z,100.00
2022-10-20T23:38:37.167Z,100.00
2022-10-20T23:42:38.437Z,100.00
2022-10-20T23:46:39.781Z,100.00
2022-10-20T23:50:42.425Z,100.00
2022-10-20T23:54:44.747Z,100.00
2022-10-20T23:58:46.099Z,100.00
